Saturday, February 28, 2015
05:22 UTC
  |  Log In   |  Register Free
Airport Search:

Dawson Municipal Airport
(16J)

Dawson Municipal Airport Diagram
No Airport Diagram Available

FAA data valid effective January 08, 2015 - March 05, 2015 (unless otherwise noted).

 
 
 
 
 
 
 
 
 
 
 
 
 
 

Current Aviation Weather for Dawson Municipal Airport (16J)

METAR data is unavailable for 16J. The nearest METAR location is at KABY (17 nm SE from 16J).

The most recent METAR observation for KABY was updated at: 0507
METAR Summary (Translated METAR)
KABY
280453Z 00000KT 9SM CLR 05/03 A3043 RMK AO2 SLP304 T00500033 401440017
(17 nm SE from 16J)
KACJ
280455Z AUTO 05006KT 10SM CLR 03/00 A3044 RMK AO2
(25 nm NE from 16J)
TAF Summary (Translated TAF)
KABY
271724Z 2718/2818 04008KT P6SM FEW250 FM281200 06010KT P6SM BKN030
  Airport Weather Conditions for 16J

Current weather conditions are
not available for 16J


The nearest NOAA weather station
is at ABY, (17 nm SE from 16J)
  
 Current Weather at ABY
41° F
Fair
North winds at 0.0 mph
ABY NOAA Radar

Pressure: 30.43 in
Humidity: 89%
Wind: Calm
Dew Point: 37.9°F
Visibility: 9.00 mi


Airport Weather Forecast for 16J

Translated METAR and TAF for KABY
Translated METAR for KABY (0522 UTC 28 February 2015)
found at http://aviationweather.gov/adds/metars/
 
METAR text: KABY 280453Z 00000KT 9SM CLR 05/03 A3043 RMK AO2 SLP304 T00500033 401440017
Conditions at: KABY (ALBANY , GA, US) observed 0453 UTC 28 February 2015
Temperature: 5.0°C (41°F)
Dewpoint: 3.3°C (38°F) [RH = 89%]
Pressure (altimeter): 30.43 inches Hg (1030.6 mb)
[Sea-level pressure: 1030.4 mb]
Winds: calm
Visibility: 9 miles (14 km)
Ceiling: at least 12,000 feet AGL
Clouds: sky clear below 12,000 feet AGL
Weather: no significant weather observed at this time
Translated TAF for KABY
Forecast for: KABY (ALBANY , GA, US)
TAF Text: KABY 280520Z 2806/0106 03004KT P6SM SCT050 BKN200
Forecast period: 0600 to 1400 UTC 28 February 2015
Forecast type: FROM: standard forecast or significant change
Winds: from the NNE (30 degrees) at 5 MPH (4 knots; 2.1 m/s)
Visibility: 6 or more miles (10+ km)
Ceiling: 20000 feet AGL
Clouds: scattered clouds at 5000 feet AGL
broken clouds at 20000 feet AGL
Weather: no significant weather forecast for this period
TAF Text: FM281400 06010KT P6SM SCT025 OVC050
Forecast period: 1400 to 1700 UTC 28 February 2015
Forecast type: FROM: standard forecast or significant change
Winds: from the ENE (60 degrees) at 12 MPH (10 knots; 5.2 m/s)
Visibility: 6 or more miles (10+ km)
Ceiling: 5000 feet AGL
Clouds: scattered clouds at 2500 feet AGL
overcast cloud deck at 5000 feet AGL
Weather: no significant weather forecast for this period
TAF Text: FM281700 06011KT 6SM -DZ BR VCSH OVC025
Forecast period: 1700 UTC 28 February 2015 to 0000 UTC 01 March 2015
Forecast type: FROM: standard forecast or significant change
Winds: from the ENE (60 degrees) at 13 MPH (11 knots; 5.7 m/s)
Visibility: 6 miles (10 km)
Ceiling: 2500 feet AGL
Clouds: overcast cloud deck at 2500 feet AGL
Weather: -DZ BR VCSH  (light drizzle, mist, showers in vicinity)
TAF Text: FM010000 06010KT P6SM OVC015
Forecast period: 0000 to 0600 UTC 01 March 2015
Forecast type: FROM: standard forecast or significant change
Winds: from the ENE (60 degrees) at 12 MPH (10 knots; 5.2 m/s)
Visibility: 6 or more miles (10+ km)
Ceiling: 1500 feet AGL
Clouds: overcast cloud deck at 1500 feet AGL
Weather: no significant weather forecast for this period

Find All Airport Services Find A Hotel Find A Rental Car Find A Golf Course Find A Restaurant $100 Hamburger



FBO's on the Field
FBO Company Facility Photos Services Transportation Aviation Fuel Prices: Prices include tax
Catering Weather Repair Courtesy Rental Type 100LL JetA JetA+ MOGAS 8087
 
Dawson/Terrell Co. Airport

This FBO has not yet been rated
FS:Independent
Last Updated: Jan-28
Login to update fuel prices
SS:
Contact Dawson/Terrell Co. AirportMore FBO Information
 
Add another FBO Facility Photos Catering Weather Repair Courtesy Rental Type 100LL JetA JetA+ MOGAS 8087
Services Transportation Aviation Fuel Prices: Prices include tax


model-print
model-print
model-print
model-print